Time;durP1;ratioP1;P1;durP2;ratioP2;P2;SDS_P1;SDS_P2;PMS_P1;PMS_P2;Temp;Humidity;BMP_temperature;BMP_pressure;BME280_temperature;BME280_humidity;BME280_pressure;Samples;Min_cycle;Max_cycle;Signal;HPM_P1;HPM_P2
2022/12/05 00:00:54;;;;;;;4.75;2.75;;;;;;;;;;4933846;29;20052;-73
2022/12/05 00:03:20;;;;;;;5.72;3.05;;;;;;;;;;4931540;29;20067;-73
2022/12/05 00:05:47;;;;;;;5.78;3.00;;;;;;;;;;4933203;29;20082;-72
2022/12/05 00:08:13;;;;;;;7.75;3.00;;;;;;;;;;4933065;29;20055;-74
2022/12/05 00:10:39;;;;;;;6.00;2.72;;;;;;;;;;4930996;29;20404;-73
2022/12/05 00:13:06;;;;;;;5.90;3.10;;;;;;;;;;4933428;29;20035;-73
2022/12/05 00:15:39;;;;;;;4.72;2.80;;;;;;;;;;4932914;29;20042;-73
2022/12/05 00:18:05;;;;;;;6.13;3.03;;;;;;;;;;4931823;29;20091;-73
2022/12/05 00:20:31;;;;;;;5.75;3.08;;;;;;;;;;4933000;29;20054;-74
2022/12/05 00:22:57;;;;;;;4.30;2.55;;;;;;;;;;4933004;29;20040;-73
2022/12/05 00:25:23;;;;;;;5.00;3.03;;;;;;;;;;4933124;29;20019;-73
2022/12/05 00:27:49;;;;;;;5.80;2.90;;;;;;;;;;4932889;29;20069;-73
2022/12/05 00:30:15;;;;;;;4.70;2.85;;;;;;;;;;4924613;29;20473;-73
2022/12/05 00:32:41;;;;;;;5.90;3.03;;;;;;;;;;4932036;29;20118;-73
2022/12/05 00:35:07;;;;;;;4.53;2.70;;;;;;;;;;4932801;29;20655;-73
2022/12/05 00:37:33;;;;;;;6.68;3.00;;;;;;;;;;4933638;29;20473;-73
2022/12/05 00:39:58;;;;;;;5.35;2.90;;;;;;;;;;4933115;29;20016;-73
2022/12/05 00:42:24;;;;;;;7.90;2.80;;;;;;;;;;4933226;29;20073;-73
2022/12/05 00:44:50;;;;;;;3.92;2.50;;;;;;;;;;4933101;29;20020;-73
2022/12/05 00:47:16;;;;;;;5.28;2.97;;;;;;;;;;4915697;29;20111;-73
2022/12/05 00:49:42;;;;;;;6.20;2.85;;;;;;;;;;4933362;29;20515;-73
2022/12/05 00:52:08;;;;;;;3.83;2.75;;;;;;;;;;4934491;29;20047;-73
2022/12/05 00:54:34;;;;;;;4.43;3.05;;;;;;;;;;4933104;29;20035;-73
2022/12/05 00:57:00;;;;;;;8.50;2.97;;;;;;;;;;4931423;29;20095;-73
2022/12/05 00:59:26;;;;;;;4.97;2.80;;;;;;;;;;4928680;29;20043;-73
2022/12/05 01:01:52;;;;;;;4.63;2.83;;;;;;;;;;4926806;28;20053;-73
2022/12/05 01:04:20;;;;;;;4.47;2.95;;;;;;;;;;4923677;29;20556;-72
2022/12/05 01:06:47;;;;;;;7.13;3.67;;;;;;;;;;4932318;29;20036;-73
2022/12/05 01:09:16;;;;;;;6.93;3.13;;;;;;;;;;4932715;29;20036;-73
2022/12/05 01:11:42;;;;;;;4.00;2.80;;;;;;;;;;4933291;29;20071;-73
2022/12/05 01:14:13;;;;;;;7.22;2.75;;;;;;;;;;4931364;29;20398;-73
2022/12/05 01:16:41;;;;;;;4.47;2.60;;;;;;;;;;4933435;29;20044;-73
2022/12/05 01:19:11;;;;;;;6.65;2.60;;;;;;;;;;4932832;29;20118;-73
2022/12/05 01:21:37;;;;;;;6.35;2.95;;;;;;;;;;4931735;29;20036;-72
2022/12/05 01:24:03;;;;;;;5.65;3.10;;;;;;;;;;4926938;29;20020;-72
2022/12/05 01:26:29;;;;;;;6.40;3.45;;;;;;;;;;4932128;29;20027;-74
2022/12/05 01:28:55;;;;;;;8.18;3.50;;;;;;;;;;4932171;29;20504;-73
2022/12/05 01:31:33;;;;;;;7.90;4.20;;;;;;;;;;4931786;29;20036;-73
2022/12/05 01:34:00;;;;;;;6.80;4.55;;;;;;;;;;4931525;29;20035;-72
2022/12/05 01:36:26;;;;;;;6.95;4.82;;;;;;;;;;4931973;29;20050;-73
2022/12/05 01:38:53;;;;;;;7.25;5.20;;;;;;;;;;4933430;29;20400;-73
2022/12/05 01:41:31;;;;;;;17.10;10.70;;;;;;;;;;4936203;29;20031;-73
2022/12/05 01:44:01;;;;;;;28.27;18.63;;;;;;;;;;4933339;29;20055;-73
2022/12/05 01:46:30;;;;;;;31.40;21.05;;;;;;;;;;4935465;29;20043;-73
2022/12/05 01:49:48;;;;;;;32.47;21.90;;;;;;;;;;4930282;29;20489;-73
2022/12/05 01:52:19;;;;;;;34.67;21.73;;;;;;;;;;4932992;29;20055;-73
2022/12/05 01:54:47;;;;;;;25.65;16.10;;;;;;;;;;4949940;29;20775;-73
2022/12/05 01:57:14;;;;;;;26.30;15.70;;;;;;;;;;4935400;29;20087;-73
2022/12/05 01:59:52;;;;;;;22.13;14.02;;;;;;;;;;4936655;29;20047;-73
2022/12/05 02:02:18;;;;;;;18.52;12.75;;;;;;;;;;4932522;29;20464;-73
2022/12/05 02:04:59;;;;;;;18.15;11.30;;;;;;;;;;4935737;29;20106;-73
2022/12/05 02:07:26;;;;;;;16.90;9.82;;;;;;;;;;4933319;29;20042;-74
2022/12/05 02:09:51;;;;;;;13.50;8.35;;;;;;;;;;4936289;29;20123;-73
2022/12/05 02:12:20;;;;;;;13.65;8.05;;;;;;;;;;4936754;29;20118;-73
2022/12/05 02:14:54;;;;;;;14.05;8.40;;;;;;;;;;4936039;29;20165;-72
2022/12/05 02:17:50;;;;;;;15.02;7.93;;;;;;;;;;4935956;29;20378;-72
2022/12/05 02:20:26;;;;;;;11.93;7.57;;;;;;;;;;4939890;28;20082;-73
2022/12/05 02:23:30;;;;;;;18.13;8.60;;;;;;;;;;4935997;29;20042;-73
2022/12/05 02:26:36;;;;;;;20.30;8.85;;;;;;;;;;4935341;29;20032;-73
2022/12/05 02:29:36;;;;;;;13.05;7.68;;;;;;;;;;4935772;29;20512;-73
2022/12/05 02:32:24;;;;;;;11.18;7.03;;;;;;;;;;4935021;29;20078;-73
2022/12/05 02:34:56;;;;;;;16.40;7.30;;;;;;;;;;4935752;29;20477;-72
2022/12/05 02:37:28;;;;;;;12.27;6.22;;;;;;;;;;4934914;29;20036;-73
2022/12/05 02:40:04;;;;;;;10.98;7.32;;;;;;;;;;4935762;29;20186;-73
2022/12/05 02:42:43;;;;;;;12.20;7.03;;;;;;;;;;4930191;29;20066;-74
2022/12/05 02:45:14;;;;;;;11.50;6.88;;;;;;;;;;4934892;29;20059;-73
2022/12/05 02:47:49;;;;;;;11.68;6.47;;;;;;;;;;4935757;29;20028;-73
2022/12/05 02:50:21;;;;;;;13.73;6.72;;;;;;;;;;4935169;29;20126;-72
2022/12/05 02:52:49;;;;;;;11.38;6.63;;;;;;;;;;4935265;29;20046;-72
2022/12/05 02:55:17;;;;;;;11.48;6.60;;;;;;;;;;4935197;29;20364;-73
2022/12/05 02:57:48;;;;;;;9.30;6.18;;;;;;;;;;4935735;29;20038;-72
2022/12/05 03:00:14;;;;;;;10.85;6.45;;;;;;;;;;4932499;29;20052;-73
2022/12/05 03:02:40;;;;;;;8.55;5.80;;;;;;;;;;4932010;29;20063;-73
2022/12/05 03:05:41;;;;;;;10.48;6.38;;;;;;;;;;4935605;29;20040;-74
2022/12/05 03:08:13;;;;;;;8.85;6.03;;;;;;;;;;4933606;28;20048;-74
2022/12/05 03:10:42;;;;;;;15.88;7.70;;;;;;;;;;4934718;28;20528;-74
2022/12/05 03:13:19;;;;;;;13.38;7.00;;;;;;;;;;4937705;28;20529;-72
2022/12/05 03:15:49;;;;;;;15.38;7.90;;;;;;;;;;4930248;28;20051;-73
2022/12/05 03:18:22;;;;;;;12.95;6.60;;;;;;;;;;4934762;29;20043;-73
2022/12/05 03:21:20;;;;;;;10.82;6.78;;;;;;;;;;4934781;29;20051;-73
2022/12/05 03:23:52;;;;;;;16.58;7.28;;;;;;;;;;4926161;29;20032;-73
2022/12/05 03:26:26;;;;;;;14.30;7.75;;;;;;;;;;4934989;29;20043;-73
2022/12/05 03:29:08;;;;;;;23.27;8.02;;;;;;;;;;4933683;29;20035;-73
2022/12/05 03:31:44;;;;;;;17.83;7.05;;;;;;;;;;4935252;29;20039;-72
2022/12/05 03:34:16;;;;;;;12.93;7.70;;;;;;;;;;4926067;29;20036;-72
2022/12/05 03:36:47;;;;;;;11.60;7.57;;;;;;;;;;4916034;29;20481;-73
2022/12/05 03:39:34;;;;;;;10.32;6.85;;;;;;;;;;4916630;29;20047;-73
2022/12/05 03:42:14;;;;;;;13.70;7.28;;;;;;;;;;4916703;29;20186;-72
2022/12/05 03:45:01;;;;;;;11.50;7.10;;;;;;;;;;4916367;29;20489;-72
2022/12/05 03:47:42;;;;;;;18.20;8.20;;;;;;;;;;4916529;29;20429;-73
2022/12/05 03:50:14;;;;;;;12.35;8.15;;;;;;;;;;4916288;29;20039;-73
2022/12/05 03:52:54;;;;;;;13.27;8.40;;;;;;;;;;4916379;29;20036;-72
2022/12/05 03:55:24;;;;;;;12.73;8.20;;;;;;;;;;4915697;29;20042;-74
2022/12/05 03:57:58;;;;;;;13.90;8.32;;;;;;;;;;4914843;29;20123;-73
2022/12/05 04:00:29;;;;;;;13.95;8.25;;;;;;;;;;4915948;29;20387;-72
2022/12/05 04:03:01;;;;;;;18.40;8.77;;;;;;;;;;4915362;29;20047;-72
2022/12/05 04:05:58;;;;;;;14.05;7.88;;;;;;;;;;4914561;28;20080;-73
2022/12/05 04:08:32;;;;;;;15.68;8.30;;;;;;;;;;4911075;29;20421;-73
2022/12/05 04:11:09;;;;;;;14.35;8.15;;;;;;;;;;4914146;28;20405;-73
2022/12/05 04:13:59;;;;;;;18.85;9.50;;;;;;;;;;4917118;29;20068;-72
2022/12/05 04:17:03;;;;;;;14.88;8.75;;;;;;;;;;4926386;29;20044;-73
2022/12/05 04:22:41;;;;;;;12.82;8.15;;;;;;;;;;4915918;29;20062;-73
2022/12/05 04:28:19;;;;;;;15.13;8.95;;;;;;;;;;4915267;29;20493;-73
2022/12/05 04:31:03;;;;;;;17.63;9.85;;;;;;;;;;4915290;29;20339;-74
2022/12/05 04:33:43;;;;;;;17.33;9.88;;;;;;;;;;4931976;29;20114;-73
2022/12/05 04:36:14;;;;;;;17.02;9.88;;;;;;;;;;4922778;29;20044;-73
2022/12/05 04:38:42;;;;;;;20.33;10.50;;;;;;;;;;4928281;29;20031;-73
2022/12/05 04:41:15;;;;;;;20.00;11.73;;;;;;;;;;4928579;29;20028;-73
2022/12/05 04:43:44;;;;;;;18.88;10.95;;;;;;;;;;4915558;29;20035;-73
2022/12/05 04:46:13;;;;;;;22.90;12.75;;;;;;;;;;4897602;28;20091;-74
2022/12/05 04:48:42;;;;;;;25.10;13.35;;;;;;;;;;4934688;29;20040;-73
2022/12/05 04:51:15;;;;;;;22.27;12.90;;;;;;;;;;4934866;29;20464;-72
2022/12/05 04:53:44;;;;;;;21.85;13.75;;;;;;;;;;4928425;29;20063;-73
2022/12/05 04:56:14;;;;;;;25.08;13.77;;;;;;;;;;4939022;29;20039;-72
2022/12/05 04:58:40;;;;;;;24.80;13.43;;;;;;;;;;4934227;29;20055;-72
2022/12/05 05:01:13;;;;;;;24.27;13.25;;;;;;;;;;4933081;29;20094;-73
2022/12/05 05:03:53;;;;;;;26.67;14.52;;;;;;;;;;4932942;29;20099;-73
2022/12/05 05:06:19;;;;;;;23.23;13.82;;;;;;;;;;4933707;29;20038;-73
2022/12/05 05:08:49;;;;;;;24.70;14.85;;;;;;;;;;4934365;29;20027;-73
2022/12/05 05:11:30;;;;;;;25.58;15.80;;;;;;;;;;4928162;29;20067;-73
2022/12/05 05:13:56;;;;;;;20.95;13.77;;;;;;;;;;4917937;29;20052;-74
2022/12/05 05:16:34;;;;;;;24.92;14.25;;;;;;;;;;4927323;29;20079;-73
2022/12/05 05:19:00;;;;;;;23.05;13.40;;;;;;;;;;4937704;29;20486;-72
2022/12/05 05:21:29;;;;;;;24.55;13.88;;;;;;;;;;4937574;29;20030;-74
2022/12/05 05:23:55;;;;;;;21.88;13.98;;;;;;;;;;4935585;29;20034;-74
2022/12/05 05:26:24;;;;;;;30.88;14.23;;;;;;;;;;4936780;29;20032;-73
2022/12/05 05:28:51;;;;;;;25.45;13.75;;;;;;;;;;4937663;29;20032;-74
2022/12/05 05:31:18;;;;;;;20.63;12.57;;;;;;;;;;4937649;29;20059;-72
2022/12/05 05:33:48;;;;;;;22.60;13.25;;;;;;;;;;4928780;29;20088;-73
2022/12/05 05:36:14;;;;;;;19.70;12.23;;;;;;;;;;4921500;29;20408;-74
2022/12/05 05:38:46;;;;;;;19.98;12.48;;;;;;;;;;4936422;29;20032;-73
2022/12/05 05:41:21;;;;;;;26.95;14.63;;;;;;;;;;4935830;29;20035;-73
2022/12/05 05:43:48;;;;;;;21.30;14.25;;;;;;;;;;4931099;29;20040;-73
2022/12/05 05:46:15;;;;;;;25.42;16.15;;;;;;;;;;4937136;29;20082;-73
2022/12/05 05:48:41;;;;;;;26.40;14.95;;;;;;;;;;4937635;29;20039;-74
2022/12/05 05:51:09;;;;;;;30.85;18.50;;;;;;;;;;4935304;29;20019;-74
2022/12/05 05:53:35;;;;;;;33.30;19.92;;;;;;;;;;4936884;29;20118;-73
2022/12/05 05:56:06;;;;;;;28.73;18.50;;;;;;;;;;4936235;29;20019;-74
2022/12/05 05:58:33;;;;;;;26.95;16.60;;;;;;;;;;4935612;29;20171;-74
2022/12/05 06:01:06;;;;;;;29.23;16.35;;;;;;;;;;4936644;29;20063;-73
2022/12/05 06:03:33;;;;;;;28.23;16.02;;;;;;;;;;4935733;29;20048;-74
2022/12/05 06:06:01;;;;;;;22.38;13.40;;;;;;;;;;4943949;29;20031;-74
2022/12/05 06:08:32;;;;;;;18.50;12.60;;;;;;;;;;4946836;28;20052;-72
2022/12/05 06:10:59;;;;;;;19.88;12.00;;;;;;;;;;4916428;29;20036;-73
2022/12/05 06:13:25;;;;;;;18.73;11.40;;;;;;;;;;4916363;29;20027;-73
2022/12/05 06:15:50;;;;;;;17.52;10.32;;;;;;;;;;4918278;29;20126;-72
2022/12/05 06:18:16;;;;;;;37.25;18.17;;;;;;;;;;4936064;29;20024;-74
2022/12/05 06:20:53;;;;;;;18.25;11.55;;;;;;;;;;4951228;29;20087;-74
2022/12/05 06:23:20;;;;;;;17.33;10.88;;;;;;;;;;4936542;29;20050;-73
2022/12/05 06:25:48;;;;;;;19.17;11.45;;;;;;;;;;4935240;29;20095;-73
2022/12/05 06:28:14;;;;;;;23.92;14.15;;;;;;;;;;4935038;29;20039;-74
2022/12/05 06:30:40;;;;;;;26.23;13.75;;;;;;;;;;4936782;29;20034;-73
2022/12/05 06:33:06;;;;;;;21.85;12.77;;;;;;;;;;4937056;29;20110;-73
2022/12/05 06:35:32;;;;;;;27.45;14.63;;;;;;;;;;4918315;29;20442;-73
2022/12/05 06:37:58;;;;;;;22.50;13.38;;;;;;;;;;4917584;29;20036;-73
2022/12/05 06:40:23;;;;;;;24.92;12.73;;;;;;;;;;4916094;29;20072;-73
2022/12/05 06:42:49;;;;;;;20.75;11.98;;;;;;;;;;4919432;29;20055;-74
2022/12/05 06:45:15;;;;;;;20.15;12.27;;;;;;;;;;4922534;29;20024;-74
2022/12/05 06:47:41;;;;;;;23.85;13.18;;;;;;;;;;4927279;29;20043;-73
2022/12/05 06:50:08;;;;;;;24.38;14.48;;;;;;;;;;4948026;29;20044;-75
2022/12/05 06:52:33;;;;;;;27.65;16.27;;;;;;;;;;4917324;29;20028;-73
2022/12/05 06:54:59;;;;;;;28.92;16.70;;;;;;;;;;4917020;29;20552;-74
2022/12/05 06:57:27;;;;;;;36.47;17.88;;;;;;;;;;4917707;29;20040;-73
2022/12/05 07:01:37;;;;;;;34.15;21.02;;;;;;;;;;4917161;29;20052;-74
2022/12/05 07:02:40;;;;;;;31.30;16.92;;;;;;;;;;4929177;29;20043;-73
2022/12/05 07:05:10;;;;;;;31.10;17.17;;;;;;;;;;4916881;29;20052;-74
2022/12/05 07:07:36;;;;;;;23.52;11.70;;;;;;;;;;4917427;29;20063;-74
2022/12/05 07:10:04;;;;;;;25.77;11.88;;;;;;;;;;4917323;29;20479;-74
2022/12/05 07:12:32;;;;;;;18.83;11.60;;;;;;;;;;4916727;29;20100;-73
2022/12/05 07:14:58;;;;;;;16.05;10.65;;;;;;;;;;4916886;29;20034;-74
2022/12/05 07:17:24;;;;;;;22.77;12.48;;;;;;;;;;4928706;29;20048;-73
2022/12/05 07:19:51;;;;;;;17.83;11.00;;;;;;;;;;4935720;29;20097;-73
2022/12/05 07:22:19;;;;;;;13.30;8.27;;;;;;;;;;4935923;29;20481;-74
2022/12/05 07:24:45;;;;;;;15.93;9.02;;;;;;;;;;4933536;29;20024;-74
2022/12/05 07:27:13;;;;;;;13.93;8.60;;;;;;;;;;4935737;29;20039;-73
2022/12/05 07:29:39;;;;;;;15.10;8.60;;;;;;;;;;4935798;29;20086;-72
2022/12/05 07:32:07;;;;;;;17.98;10.75;;;;;;;;;;4935931;29;20067;-73
2022/12/05 07:34:32;;;;;;;23.05;11.27;;;;;;;;;;4934670;29;20020;-73
2022/12/05 07:36:59;;;;;;;21.35;11.70;;;;;;;;;;4934244;29;20043;-75
2022/12/05 07:39:25;;;;;;;21.05;11.90;;;;;;;;;;4935478;29;20030;-73
2022/12/05 07:41:51;;;;;;;22.77;12.38;;;;;;;;;;4935601;29;20039;-74
2022/12/05 07:44:17;;;;;;;18.83;11.65;;;;;;;;;;4934257;29;20028;-73
2022/12/05 07:46:43;;;;;;;21.38;11.73;;;;;;;;;;4935243;29;20095;-74
2022/12/05 07:49:09;;;;;;;20.52;11.25;;;;;;;;;;4935498;29;20028;-71
2022/12/05 07:51:35;;;;;;;20.48;12.20;;;;;;;;;;4934888;29;20070;-74
2022/12/05 07:54:01;;;;;;;25.92;12.30;;;;;;;;;;4935082;29;20026;-72
2022/12/05 07:56:28;;;;;;;17.50;10.45;;;;;;;;;;4935032;29;20110;-73
2022/12/05 07:58:54;;;;;;;17.25;10.77;;;;;;;;;;4949494;29;20032;-73
2022/12/05 08:01:25;;;;;;;16.45;10.10;;;;;;;;;;4934701;29;20382;-73
2022/12/05 08:03:56;;;;;;;14.95;9.25;;;;;;;;;;4934613;29;20036;-73
2022/12/05 08:06:27;;;;;;;24.33;14.93;;;;;;;;;;4935351;29;20036;-73
2022/12/05 08:08:54;;;;;;;20.27;10.85;;;;;;;;;;4933508;29;20038;-73
2022/12/05 08:11:23;;;;;;;19.48;11.15;;;;;;;;;;4949756;29;20035;-74
2022/12/05 08:13:49;;;;;;;20.73;12.30;;;;;;;;;;4934856;29;20032;-74
2022/12/05 08:16:17;;;;;;;25.00;15.05;;;;;;;;;;4948894;29;20038;-74
2022/12/05 08:18:44;;;;;;;20.80;11.50;;;;;;;;;;4934965;29;20093;-74
2022/12/05 08:21:16;;;;;;;20.30;11.95;;;;;;;;;;4935373;29;20031;-74
2022/12/05 08:23:42;;;;;;;21.20;13.02;;;;;;;;;;4935051;29;20050;-74
2022/12/05 08:26:20;;;;;;;17.70;10.93;;;;;;;;;;4934830;29;20082;-73
2022/12/05 08:28:51;;;;;;;19.00;12.82;;;;;;;;;;4925689;29;20083;-73
2022/12/05 08:31:19;;;;;;;22.13;12.93;;;;;;;;;;4915481;29;20111;-73
2022/12/05 08:33:46;;;;;;;25.05;13.95;;;;;;;;;;4915098;29;20057;-72
2022/12/05 08:36:14;;;;;;;20.77;12.98;;;;;;;;;;4916180;29;20111;-73
2022/12/05 08:38:41;;;;;;;20.75;12.32;;;;;;;;;;4916248;29;20024;-73
2022/12/05 08:41:09;;;;;;;18.80;12.27;;;;;;;;;;4918424;29;20036;-72
2022/12/05 08:43:37;;;;;;;18.48;11.52;;;;;;;;;;4924323;29;20452;-72
2022/12/05 08:46:04;;;;;;;19.48;12.32;;;;;;;;;;4927749;29;20182;-73
2022/12/05 08:48:31;;;;;;;19.80;12.30;;;;;;;;;;4932101;29;20087;-73
2022/12/05 08:50:58;;;;;;;19.70;11.73;;;;;;;;;;4933466;29;20382;-73
2022/12/05 08:53:25;;;;;;;9.68;6.18;;;;;;;;;;4930484;29;20092;-74
2022/12/05 08:55:51;;;;;;;8.52;5.07;;;;;;;;;;4914810;29;20036;-74
2022/12/05 08:58:17;;;;;;;7.75;4.53;;;;;;;;;;4915277;29;20103;-74
2022/12/05 09:00:43;;;;;;;11.45;5.05;;;;;;;;;;4915021;29;20510;-72
2022/12/05 09:03:10;;;;;;;8.00;5.47;;;;;;;;;;4931004;29;20036;-73
2022/12/05 09:05:37;;;;;;;10.23;6.07;;;;;;;;;;4932884;29;20373;-75
2022/12/05 09:08:03;;;;;;;6.07;4.50;;;;;;;;;;4938178;28;20087;-73
2022/12/05 09:10:29;;;;;;;7.57;4.60;;;;;;;;;;4936415;29;20087;-71
2022/12/05 09:12:55;;;;;;;9.65;5.05;;;;;;;;;;4934218;29;20031;-71
2022/12/05 09:15:21;;;;;;;7.05;4.68;;;;;;;;;;4933984;29;20039;-72
2022/12/05 09:17:47;;;;;;;6.82;3.85;;;;;;;;;;4949002;29;20028;-73
2022/12/05 09:20:14;;;;;;;6.38;3.90;;;;;;;;;;4933775;29;20038;-73
2022/12/05 09:22:41;;;;;;;10.95;5.30;;;;;;;;;;4934296;29;20107;-73
2022/12/05 09:25:08;;;;;;;6.93;4.43;;;;;;;;;;4921872;29;20043;-72
2022/12/05 09:27:33;;;;;;;7.95;5.07;;;;;;;;;;4915188;29;20382;-73
2022/12/05 09:30:00;;;;;;;8.57;5.25;;;;;;;;;;4913793;29;20040;-72
2022/12/05 09:32:26;;;;;;;10.35;5.00;;;;;;;;;;4913582;29;20031;-72
2022/12/05 09:34:51;;;;;;;9.20;5.50;;;;;;;;;;4923373;29;20036;-72
2022/12/05 09:37:19;;;;;;;7.88;5.75;;;;;;;;;;4932176;29;20019;-73
2022/12/05 09:39:46;;;;;;;6.72;4.30;;;;;;;;;;4933973;29;20397;-73
2022/12/05 09:42:57;;;;;;;7.53;4.32;;;;;;;;;;4926261;29;20024;-74
2022/12/05 09:45:34;;;;;;;7.30;4.38;;;;;;;;;;4931186;29;20545;-74
2022/12/05 09:48:11;;;;;;;5.20;3.13;;;;;;;;;;4931532;29;20043;-75
2022/12/05 09:50:48;;;;;;;5.68;3.13;;;;;;;;;;4920809;29;20127;-72
2022/12/05 09:53:26;;;;;;;5.75;3.90;;;;;;;;;;4921989;29;20480;-74
2022/12/05 09:56:07;;;;;;;6.13;3.22;;;;;;;;;;4915251;29;20039;-73
2022/12/05 09:58:44;;;;;;;6.35;3.45;;;;;;;;;;4915680;29;20044;-74
2022/12/05 10:01:44;;;;;;;6.72;3.70;;;;;;;;;;4923447;29;20134;-73
2022/12/05 10:04:47;;;;;;;7.00;4.35;;;;;;;;;;4928761;29;20068;-74
2022/12/05 10:07:38;;;;;;;5.75;3.63;;;;;;;;;;4918013;29;20040;-75
2022/12/05 10:10:38;;;;;;;5.65;3.78;;;;;;;;;;4917580;29;20043;-75
2022/12/05 10:13:29;;;;;;;5.00;3.45;;;;;;;;;;4917859;29;20055;-75
2022/12/05 10:16:06;;;;;;;7.90;3.63;;;;;;;;;;4917896;29;20080;-74
2022/12/05 10:18:37;;;;;;;6.25;3.95;;;;;;;;;;4933877;29;20114;-75
2022/12/05 10:21:18;;;;;;;6.03;3.88;;;;;;;;;;4935484;29;20078;-73
2022/12/05 10:23:54;;;;;;;4.63;3.00;;;;;;;;;;4921891;29;20462;-73
2022/12/05 10:26:23;;;;;;;8.32;3.80;;;;;;;;;;4916167;29;20047;-75
2022/12/05 10:29:26;;;;;;;5.80;3.50;;;;;;;;;;4917902;29;20153;-75
2022/12/05 10:32:01;;;;;;;7.25;3.67;;;;;;;;;;4916429;29;20028;-73
2022/12/05 10:34:39;;;;;;;6.85;3.65;;;;;;;;;;4917580;29;20055;-74
2022/12/05 10:37:13;;;;;;;5.85;3.72;;;;;;;;;;4918386;29;20085;-73
2022/12/05 10:39:40;;;;;;;4.93;2.88;;;;;;;;;;4927968;29;20765;-75
2022/12/05 10:42:11;;;;;;;4.15;2.95;;;;;;;;;;4936748;29;20028;-74
2022/12/05 10:44:37;;;;;;;6.03;3.63;;;;;;;;;;4936479;28;20039;-74
2022/12/05 10:47:03;;;;;;;6.38;2.90;;;;;;;;;;4937677;29;20086;-73
2022/12/05 10:49:31;;;;;;;4.30;3.15;;;;;;;;;;4935326;29;20039;-74
2022/12/05 11:21:23;;;;;;;15.43;4.43;;;;;;;;;;4730898;29;20066;-74
2022/12/05 11:23:49;;;;;;;6.13;3.22;;;;;;;;;;4920422;29;20036;-74
2022/12/05 11:26:32;;;;;;;8.40;3.47;;;;;;;;;;4916094;29;20028;-74
2022/12/05 11:28:59;;;;;;;10.50;3.70;;;;;;;;;;4935543;29;20405;-75
2022/12/05 11:31:27;;;;;;;13.35;4.70;;;;;;;;;;4936368;29;20024;-75
2022/12/05 11:34:02;;;;;;;6.78;3.88;;;;;;;;;;4932716;29;20502;-74
2022/12/05 11:36:37;;;;;;;24.48;5.85;;;;;;;;;;4931082;29;20038;-74
2022/12/05 11:39:03;;;;;;;11.80;4.05;;;;;;;;;;4935791;29;20043;-75
2022/12/05 11:42:09;;;;;;;5.20;3.15;;;;;;;;;;4918462;29;20107;-73
2022/12/05 11:44:57;;;;;;;10.88;3.78;;;;;;;;;;4895585;29;20067;-74
2022/12/05 11:48:11;;;;;;;7.38;3.53;;;;;;;;;;4895717;29;20036;-75
2022/12/05 11:50:50;;;;;;;6.18;3.72;;;;;;;;;;4875996;29;20049;-74
2022/12/05 11:53:54;;;;;;;8.25;4.35;;;;;;;;;;4916480;29;20044;-74
2022/12/05 11:56:22;;;;;;;6.57;3.92;;;;;;;;;;4935589;29;20130;-74
2022/12/05 11:59:25;;;;;;;5.28;3.78;;;;;;;;;;4936619;29;20032;-74
2022/12/05 12:02:03;;;;;;;5.85;4.43;;;;;;;;;;4936038;29;20571;-75
2022/12/05 12:04:47;;;;;;;9.40;4.57;;;;;;;;;;4930562;29;20032;-72
2022/12/05 12:07:47;;;;;;;8.23;5.15;;;;;;;;;;4916309;29;20040;-73
2022/12/05 12:10:37;;;;;;;13.02;9.95;;;;;;;;;;4916582;29;20036;-74
2022/12/05 12:13:21;;;;;;;9.23;5.60;;;;;;;;;;4927110;29;20485;-74
2022/12/05 12:15:50;;;;;;;7.10;4.30;;;;;;;;;;4934334;29;20123;-75
2022/12/05 12:18:50;;;;;;;9.38;5.43;;;;;;;;;;4935895;29;20040;-74
2022/12/05 12:21:50;;;;;;;9.50;5.10;;;;;;;;;;4933616;29;20047;-74
2022/12/05 12:24:51;;;;;;;10.70;5.20;;;;;;;;;;4894540;29;20173;-74
2022/12/05 12:27:26;;;;;;;11.27;5.00;;;;;;;;;;4928074;29;20130;-74
2022/12/05 12:30:09;;;;;;;12.60;5.53;;;;;;;;;;4935248;29;20040;-75
2022/12/05 12:32:53;;;;;;;11.60;6.80;;;;;;;;;;4932107;29;20066;-73
2022/12/05 12:35:31;;;;;;;10.60;7.15;;;;;;;;;;4925663;29;20111;-74
2022/12/05 12:38:08;;;;;;;9.38;5.80;;;;;;;;;;4938629;28;20059;-76
2022/12/05 12:40:45;;;;;;;8.15;5.40;;;;;;;;;;4937604;28;20046;-76
2022/12/05 12:43:39;;;;;;;11.38;5.57;;;;;;;;;;4905775;29;20067;-75
2022/12/05 12:46:11;;;;;;;12.80;5.63;;;;;;;;;;4920858;29;20182;-77
2022/12/05 12:48:51;;;;;;;9.32;5.65;;;;;;;;;;4947482;29;20031;-77
2022/12/05 12:51:17;;;;;;;8.48;5.20;;;;;;;;;;4948853;29;20050;-74
2022/12/05 12:53:58;;;;;;;8.75;5.30;;;;;;;;;;4933879;29;20388;-77
2022/12/05 12:56:37;;;;;;;10.88;5.65;;;;;;;;;;4933082;29;20118;-73
2022/12/05 12:59:13;;;;;;;12.50;7.13;;;;;;;;;;4933285;29;20442;-75
2022/12/05 13:01:52;;;;;;;13.80;8.30;;;;;;;;;;4933220;29;20032;-76
2022/12/05 13:04:23;;;;;;;14.13;7.28;;;;;;;;;;4934081;29;20101;-74
2022/12/05 13:06:58;;;;;;;8.65;5.03;;;;;;;;;;4935417;29;20045;-75
2022/12/05 13:09:33;;;;;;;7.57;3.60;;;;;;;;;;4915723;29;20063;-76
2022/12/05 13:12:08;;;;;;;4.43;2.50;;;;;;;;;;4920563;29;20511;-74
2022/12/05 13:14:37;;;;;;;5.03;2.95;;;;;;;;;;4953189;29;20035;-77
2022/12/05 13:17:05;;;;;;;5.38;2.80;;;;;;;;;;4933609;29;20157;-76
2022/12/05 13:19:42;;;;;;;3.53;2.40;;;;;;;;;;4934196;29;20038;-76
2022/12/05 13:22:09;;;;;;;5.85;2.40;;;;;;;;;;4928893;29;20048;-75
2022/12/05 13:24:35;;;;;;;5.00;2.70;;;;;;;;;;4932287;29;20043;-76
2022/12/05 13:27:05;;;;;;;3.80;2.60;;;;;;;;;;4946834;29;20063;-77
2022/12/05 13:29:55;;;;;;;3.42;2.10;;;;;;;;;;4933885;29;20122;-77
2022/12/05 13:32:24;;;;;;;4.35;1.67;;;;;;;;;;4933269;29;20051;-78
2022/12/05 13:34:51;;;;;;;5.07;1.55;;;;;;;;;;4944343;29;20031;-77
2022/12/05 13:43:22;;;;;;;5.10;2.85;;;;;;;;;;4956789;28;20113;-77
2022/12/05 13:46:09;;;;;;;8.15;2.13;;;;;;;;;;4944879;28;20035;-77
2022/12/05 13:48:43;;;;;;;5.82;2.38;;;;;;;;;;4936277;29;20038;-77
2022/12/05 13:51:34;;;;;;;4.70;1.92;;;;;;;;;;4936551;29;20126;-78
2022/12/05 13:54:14;;;;;;;4.80;1.92;;;;;;;;;;4933453;29;20040;-78
2022/12/05 13:56:51;;;;;;;4.18;2.20;;;;;;;;;;4936069;29;20047;-78
2022/12/05 13:59:59;;;;;;;6.95;1.95;;;;;;;;;;4928705;29;20032;-76
2022/12/05 14:02:46;;;;;;;4.90;2.00;;;;;;;;;;4934792;29;20382;-76
2022/12/05 14:05:17;;;;;;;7.38;2.67;;;;;;;;;;4934348;29;20039;-75
2022/12/05 14:07:56;;;;;;;3.20;2.15;;;;;;;;;;4936055;29;20031;-77
2022/12/05 14:10:42;;;;;;;4.70;2.97;;;;;;;;;;4952153;29;20501;-78
2022/12/05 14:13:14;;;;;;;6.45;2.50;;;;;;;;;;4919075;29;20073;-76
2022/12/05 14:15:44;;;;;;;6.95;3.75;;;;;;;;;;4937856;29;20544;-78
2022/12/05 14:18:10;;;;;;;4.53;2.63;;;;;;;;;;4936133;29;20070;-77
2022/12/05 14:20:49;;;;;;;5.38;3.00;;;;;;;;;;4935220;29;20070;-77
2022/12/05 14:23:57;;;;;;;5.90;3.20;;;;;;;;;;4936366;29;20548;-77
2022/12/05 14:26:31;;;;;;;5.18;2.95;;;;;;;;;;4935369;29;20032;-77
2022/12/05 14:29:31;;;;;;;4.03;2.70;;;;;;;;;;4933762;29;20038;-77
2022/12/05 14:32:07;;;;;;;4.00;2.50;;;;;;;;;;4935154;29;20031;-77
2022/12/05 14:34:36;;;;;;;3.80;2.70;;;;;;;;;;4932856;29;20072;-78
2022/12/05 14:37:13;;;;;;;4.75;2.92;;;;;;;;;;4936550;29;20032;-78
2022/12/05 14:39:50;;;;;;;6.75;3.05;;;;;;;;;;4936282;29;20039;-76
2022/12/05 14:43:13;;;;;;;10.07;3.65;;;;;;;;;;4936336;29;20035;-77
2022/12/05 14:45:46;;;;;;;6.00;3.95;;;;;;;;;;4894517;29;20080;-77
2022/12/05 14:48:12;;;;;;;;;;;;;;;;;;4896800;29;20130;-77
2022/12/05 14:50:44;;;;;;;6.95;4.28;;;;;;;;;;4928884;28;19918;-77
2022/12/05 14:53:31;;;;;;;9.00;5.38;;;;;;;;;;4936227;29;20079;-77
2022/12/05 14:56:00;;;;;;;5.55;3.47;;;;;;;;;;4927143;29;20052;-77
2022/12/05 14:58:32;;;;;;;6.57;4.30;;;;;;;;;;4918407;29;20457;-75
2022/12/05 15:01:50;;;;;;;7.57;3.78;;;;;;;;;;4934276;29;20047;-75
2022/12/05 15:04:37;;;;;;;4.28;2.95;;;;;;;;;;4926590;29;20040;-77
2022/12/05 15:07:49;;;;;;;6.85;3.60;;;;;;;;;;4932133;29;20173;-77
2022/12/05 15:10:26;;;;;;;6.50;3.70;;;;;;;;;;4932062;29;20071;-76
2022/12/05 15:13:19;;;;;;;8.65;3.22;;;;;;;;;;4937537;29;20028;-78
2022/12/05 15:15:54;;;;;;;5.68;3.22;;;;;;;;;;4936374;29;20027;-76
2022/12/05 15:18:33;;;;;;;6.22;4.50;;;;;;;;;;4935803;29;20067;-75
2022/12/05 15:21:21;;;;;;;7.55;4.30;;;;;;;;;;4935570;29;20042;-78
2022/12/05 15:23:54;;;;;;;7.35;3.97;;;;;;;;;;4934488;29;20039;-76
2022/12/05 15:26:36;;;;;;;11.35;6.22;;;;;;;;;;4935682;29;20080;-77
2022/12/05 15:29:31;;;;;;;9.68;5.32;;;;;;;;;;4923585;29;20040;-78
2022/12/05 15:32:11;;;;;;;5.70;3.50;;;;;;;;;;4934746;29;20031;-76
2022/12/05 15:34:57;;;;;;;5.13;3.08;;;;;;;;;;4929432;29;20038;-76
2022/12/05 15:37:48;;;;;;;4.35;2.65;;;;;;;;;;4933817;29;20039;-77
2022/12/05 15:40:16;;;;;;;4.88;3.72;;;;;;;;;;4931506;29;20031;-77
2022/12/05 15:42:45;;;;;;;6.15;3.67;;;;;;;;;;4935199;29;20496;-77
2022/12/05 15:45:12;;;;;;;5.20;3.50;;;;;;;;;;4935276;29;20027;-75
2022/12/05 15:47:47;;;;;;;7.95;5.07;;;;;;;;;;4930613;29;20035;-76
2022/12/05 15:50:32;;;;;;;8.65;4.38;;;;;;;;;;4933661;29;20392;-76
2022/12/05 15:53:13;;;;;;;6.68;4.30;;;;;;;;;;4931381;29;20093;-76
2022/12/05 15:55:54;;;;;;;6.55;5.25;;;;;;;;;;4932145;29;20402;-76